Airfield :
LOGIN :

Register | Disclaimer

   EN    FR    IT 

 










Legend :    VFR   Marginal VFR   IFR   Intensive IFR   Very Intensive IFR
Visi :
Ceiling :
>= 8 km
>= 3000ft
5 to 8 km
1000 to 3000 ft
1500m to 5 km
500 to 1000 ft
800 to 1500m
200 to 500 ft
< 800m
< 200 ft
Symbols :   Thunderstorms  Fog  Heavy snow  Heavy precipitations  Wind > 20 kt
SIGMETs :     Misc.  Thunderstorms  Icing  Turbulence  Mountain Waves  Volcanic Ashes






- Airport Elevation : 171 ft
- IATA code : EGC


LFBE - Bergerac

CURRENT METAR :
  • 150700Z AUTO 25008KT 210V270 9999 BKN013/// BKN026/// BKN035/// ///TCU 12/11 Q1013 TEMPO 4000 SHRA SCT010 BKN020TCU

EXPIRED METARs :
  • 150630Z AUTO 22011KT 190V250 9000 RA BKN011/// BKN024/// BKN032/// ///TCU 12/11 Q1012 TEMPO 4000 SHRA SCT010 BKN020TCU
  • 150600Z AUTO 21008KT 170V240 9999 -RA FEW012/// BKN030/// BKN049/// ///TCU 12/10 Q1012 TEMPO 4000 SHRA
  • 150530Z AUTO 22008KT 180V240 9999 -RA SCT024/// BKN050/// BKN070/// ///TCU 12/11 Q1012 TEMPO 4000 SHRA
  • 150500Z AUTO 24008KT 9999 -RA FEW015/// OVC068/// ///TCU 12/11 Q1012 TEMPO 4000 SHRA
  • 150430Z AUTO 25009KT 9999 -RA SCT014/// SCT027/// BKN050/// ///TCU 12/11 Q1011 TEMPO 4000 SHRA

TAF AMD TAF LFBE
Valid from the 15 at 06:00 until the 16 at 06:00 UTC


150659Z 1506/1606 24010KT CAVOK
TEMPO 1506/1510 4000 SHRA BKN010 BKN020TCU
TEMPO 1512/1518 24015G25KT 3000 SHRA FEW030CB BKN040TCU
BECMG 1521/1523 16010KT



MET'MAP, your aeronautical weather chart ! - Copyright ORBIFLY December 2007 - Disclaimer

ORBIFLY MET'MAP TEAM :

Programming & Development : Alexandra Zaïnal
Concept & Development : Baudouin d'Aumeries
Co-Development & Prog : Marc-Olivier Méhu
Technical & hardware support : Manuel Goepfert

Contact : metmap@orbifly.com




SOURCES & CREDITS :

   NOAA